Time;durP1;ratioP1;P1;durP2;ratioP2;P2;SDS_P1;SDS_P2;PMS_P1;PMS_P2;Temp;Humidity;BMP_temperature;BMP_pressure;BME280_temperature;BME280_humidity;BME280_pressure;Samples;Min_cycle;Max_cycle;Signal;HPM_P1;HPM_P2
2023/03/23 00:02:45;;;;;;;;;17.00;16.00;;;;;12.02;73.62;101031.13;146615;635;47010;-81
2023/03/23 00:05:59;;;;;;;;;18.75;16.50;;;;;12.05;74.63;101021.69;146615;603;45017;-80
2023/03/23 00:09:03;;;;;;;;;15.75;15.00;;;;;12.09;74.25;101026.25;146622;580;45020;-80
2023/03/23 00:12:05;;;;;;;;;20.00;18.25;;;;;12.14;74.31;101010.03;146618;565;45017;-79
2023/03/23 00:15:06;;;;;;;;;21.25;16.75;;;;;12.22;74.68;101021.72;146623;634;45020;-80
2023/03/23 00:18:04;;;;;;;;;18.25;15.00;;;;;12.26;74.28;101012.34;146617;627;45016;-81
2023/03/23 00:21:33;;;;;;;;;20.00;17.00;;;;;10.46;73.35;100693.53;146615;569;45021;-77
2023/03/23 00:24:33;;;;;;;;;19.25;15.25;;;;;12.40;74.36;101007.84;146621;577;45914;-78
2023/03/23 00:27:56;;;;;;;;;;;;;;;;;;;;;
2023/03/23 00:30:56;;;;;;;;;21.00;18.25;;;;;12.50;74.53;101009.19;146616;606;47016;-78
2023/03/23 00:33:58;;;;;;;;;22.25;19.00;;;;;12.49;74.04;101008.25;146621;597;45021;-79
2023/03/23 00:36:58;;;;;;;;;16.00;15.00;;;;;12.51;74.60;101009.22;146618;670;45021;-79
2023/03/23 00:40:00;;;;;;;;;18.75;13.00;;;;;12.51;73.55;101001.44;146617;693;46020;-80
2023/03/23 00:43:04;;;;;;;;;20.00;19.25;;;;;12.53;74.03;101002.41;146619;579;45017;-79
2023/03/23 00:46:33;;;;;;;;;19.00;17.75;;;;;10.28;72.50;100604.47;146623;584;45020;-79
2023/03/23 00:49:41;;;;;;;;;19.75;17.00;;;;;12.57;74.97;100995.63;146619;601;45913;-78
2023/03/23 00:52:33;;;;;;;;;18.25;17.25;;;;;12.58;75.21;101000.00;146612;572;45020;-79
2023/03/23 00:55:33;;;;;;;;;20.75;17.50;;;;;12.55;74.77;100990.34;146618;577;45914;-79
2023/03/23 00:58:37;;;;;;;;;20.25;18.75;;;;;12.57;74.76;100987.84;146622;643;45021;-78
2023/03/23 01:01:45;;;;;;;;;19.75;16.75;;;;;12.61;74.26;100990.63;146620;579;45915;-79
2023/03/23 01:04:38;;;;;;;;;18.75;17.00;;;;;12.65;74.94;100994.31;146622;592;45021;-77
2023/03/23 01:07:35;;;;;;;;;16.50;15.00;;;;;12.68;75.28;100991.84;146617;606;45914;-77
2023/03/23 01:10:55;;;;;;;;;18.00;15.75;;;;;12.69;75.47;100993.63;146622;611;45020;-77
2023/03/23 01:13:48;;;;;;;;;20.00;17.75;;;;;12.69;75.21;100989.28;146617;580;45018;-79
2023/03/23 01:16:57;;;;;;;;;22.00;16.00;;;;;12.71;75.06;100986.78;146620;589;45020;-85
2023/03/23 01:20:04;;;;;;;;;20.25;19.00;;;;;11.73;75.46;100814.00;146614;581;46021;-81
2023/03/23 01:23:12;;;;;;;;;21.00;19.75;;;;;12.70;75.31;100984.97;146614;571;45020;-80
2023/03/23 01:26:31;;;;;;;;;17.75;17.25;;;;;12.71;74.58;100984.19;146618;694;45017;-79
2023/03/23 01:29:34;;;;;;;;;15.00;14.50;;;;;12.78;74.38;100982.75;146621;582;45020;-80
2023/03/23 01:32:41;;;;;;;;;19.00;15.75;;;;;12.85;73.75;100979.59;146618;573;45914;-79
2023/03/23 01:35:52;;;;;;;;;16.75;15.75;;;;;12.92;73.07;100979.06;146624;571;45020;-81
2023/03/23 01:39:10;;;;;;;;;16.75;16.50;;;;;10.88;72.73;100595.34;146619;611;45914;-76
2023/03/23 01:42:27;;;;;;;;;18.50;17.50;;;;;13.10;72.92;100974.69;146622;593;45021;-81
2023/03/23 01:45:56;;;;;;;;;21.75;19.00;;;;;11.08;72.19;100625.69;146617;581;46012;-80
2023/03/23 01:49:06;;;;;;;;;19.00;16.00;;;;;13.18;72.99;100977.66;146618;582;45021;-85
2023/03/23 01:52:21;;;;;;;;;21.00;19.50;;;;;13.15;73.31;100967.97;146619;583;45021;-82
2023/03/23 01:55:20;;;;;;;;;18.75;17.50;;;;;13.14;73.21;100970.50;146617;642;45020;-82
2023/03/23 01:59:03;;;;;;;;;;;;;;;;;;;;;
2023/03/23 02:02:10;;;;;;;;;21.75;16.50;;;;;12.19;72.98;100797.13;146622;628;45020;-77
2023/03/23 02:05:27;;;;;;;;;17.50;16.25;;;;;13.19;73.68;100963.78;146618;575;45021;-76
2023/03/23 02:08:28;;;;;;;;;18.50;17.50;;;;;13.13;73.43;100961.81;146615;602;45047;-77
2023/03/23 02:11:37;;;;;;;;;18.00;17.75;;;;;11.05;73.03;100602.19;146607;703;46012;-83
2023/03/23 02:14:44;;;;;;;;;22.25;19.00;;;;;13.13;73.79;100971.31;146614;564;45020;-80
2023/03/23 02:18:29;;;;;;;;;17.50;16.50;;;;;12.05;72.53;100783.47;146608;564;46014;-80
2023/03/23 02:22:06;;;;;;;;;18.00;16.50;;;;;11.05;72.26;100609.09;146614;563;46010;-83
2023/03/23 02:25:44;;;;;;;;;18.00;17.00;;;;;11.07;73.10;100621.34;146611;584;45913;-81
2023/03/23 02:29:32;;;;;;;;;19.00;14.50;;;;;11.03;72.33;100615.94;146610;619;46012;-81
2023/03/23 02:33:27;;;;;;;;;18.25;17.00;;;;;13.00;73.08;100969.88;146609;564;45915;-80
2023/03/23 02:36:58;;;;;;;;;20.50;17.25;;;;;12.97;73.26;100984.47;146613;564;47010;-81
2023/03/23 02:40:08;;;;;;;;;18.75;17.25;;;;;12.91;74.70;100977.28;146610;582;46012;-82
2023/03/23 02:43:12;;;;;;;;;17.00;15.00;;;;;12.83;74.80;100982.13;146615;610;45020;-87
2023/03/23 02:46:08;;;;;;;;;17.75;15.75;;;;;12.78;75.21;100981.03;146612;611;45017;-87
2023/03/23 02:49:05;;;;;;;;;20.25;16.50;;;;;12.72;75.39;100985.94;146617;630;45021;-81
2023/03/23 02:52:03;;;;;;;;;19.00;16.50;;;;;12.65;76.33;100984.78;146611;588;45914;-75
2023/03/23 02:55:14;;;;;;;;;20.75;18.75;;;;;12.59;76.60;100981.00;146612;610;47012;-76
2023/03/23 02:58:09;;;;;;;;;22.50;17.75;;;;;12.59;76.73;100986.22;146611;575;45914;-74
2023/03/23 03:01:19;;;;;;;;;23.00;21.25;;;;;12.60;77.56;100987.97;146610;585;45021;-77
2023/03/23 03:04:42;;;;;;;;;28.50;24.75;;;;;12.64;76.35;100997.69;146609;589;45041;-78
2023/03/23 03:08:01;;;;;;;;;30.50;23.25;;;;;12.64;77.23;100995.09;146616;590;46010;-76
2023/03/23 03:11:28;;;;;;;;;;;;;;;;;;;;;
2023/03/23 03:15:07;;;;;;;;;24.25;20.50;;;;;10.55;75.75;100633.47;146617;595;45020;-80
2023/03/23 03:18:29;;;;;;;;;20.75;18.00;;;;;12.62;76.38;101010.66;146615;588;45017;-81
2023/03/23 03:21:36;;;;;;;;;25.25;21.50;;;;;12.53;75.43;101012.81;146621;605;45020;-80
2023/03/23 03:24:40;;;;;;;;;16.00;15.75;;;;;12.46;75.90;101013.31;146620;599;45024;-76
2023/03/23 03:27:42;;;;;;;;;18.50;17.50;;;;;12.37;75.71;101021.59;146620;612;45027;-80
2023/03/23 03:30:46;;;;;;;;;21.75;17.50;;;;;12.25;76.04;101015.78;146616;592;45021;-79
2023/03/23 03:33:47;;;;;;;;;19.50;18.25;;;;;12.13;76.36;101015.19;146615;590;45021;-74
2023/03/23 03:37:05;;;;;;;;;21.00;19.75;;;;;12.01;77.46;101018.94;146619;632;45916;-76
2023/03/23 03:40:11;;;;;;;;;17.00;13.75;;;;;11.91;77.62;101018.41;146620;648;46020;-75
2023/03/23 03:43:26;;;;;;;;;19.00;16.25;;;;;9.87;77.23;100692.16;146617;600;45916;-74
2023/03/23 03:46:43;;;;;;;;;21.75;17.00;;;;;11.70;78.68;101029.44;146623;668;45021;-75
2023/03/23 03:49:53;;;;;;;;;20.25;15.50;;;;;11.67;78.40;101025.81;146619;688;45916;-76
2023/03/23 03:52:54;;;;;;;;;16.25;15.00;;;;;11.69;78.14;101026.78;146620;638;45021;-74
2023/03/23 03:56:01;;;;;;;;;17.00;15.00;;;;;11.75;78.60;101030.59;146620;620;45017;-74
2023/03/23 03:59:13;;;;;;;;;16.75;13.75;;;;;11.82;78.03;101038.69;146622;573;45020;-73
2023/03/23 04:02:19;;;;;;;;;17.00;14.25;;;;;11.90;77.99;101040.91;146618;570;45017;-74
2023/03/23 04:05:25;;;;;;;;;19.50;16.00;;;;;11.94;78.34;101037.66;146617;569;45020;-73
2023/03/23 04:08:32;;;;;;;;;19.00;16.75;;;;;12.04;77.70;101028.59;146615;567;46015;-74
2023/03/23 04:11:42;;;;;;;;;16.25;15.25;;;;;12.10;77.68;101030.63;146613;571;45020;-73
2023/03/23 04:14:35;;;;;;;;;21.00;17.25;;;;;12.17;77.37;101035.31;146616;625;45016;-77
2023/03/23 04:17:37;;;;;;;;;21.75;17.00;;;;;12.21;77.14;101037.22;146618;607;45046;-76
2023/03/23 04:20:30;;;;;;;;;19.25;17.50;;;;;12.19;77.56;101037.16;146615;563;45016;-76
2023/03/23 04:23:35;;;;;;;;;18.50;17.00;;;;;12.20;76.86;101038.94;146620;630;45020;-75
2023/03/23 04:26:57;;;;;;;;;20.00;17.75;;;;;12.21;77.16;101045.03;146613;572;45016;-76
2023/03/23 04:30:16;;;;;;;;;22.75;18.75;;;;;12.22;77.17;101078.03;146617;658;45020;-77
2023/03/23 04:33:21;;;;;;;;;24.75;19.75;;;;;12.20;77.31;101045.84;146615;564;45041;-74
2023/03/23 04:36:25;;;;;;;;;20.00;16.75;;;;;12.23;78.01;101053.81;146616;590;45020;-74
2023/03/23 04:39:20;;;;;;;;;26.25;22.50;;;;;12.24;78.15;101048.69;146615;570;45017;-73
2023/03/23 04:42:21;;;;;;;;;19.00;17.50;;;;;12.27;78.16;101052.25;146617;597;45020;-72
2023/03/23 04:45:22;;;;;;;;;20.00;19.25;;;;;12.28;77.83;101047.13;146616;607;45016;-73
2023/03/23 04:48:24;;;;;;;;;25.00;19.75;;;;;12.27;77.91;101049.66;146617;617;45021;-73
2023/03/23 04:51:48;;;;;;;;;18.00;18.00;;;;;12.24;77.09;101084.19;146611;666;45914;-78
2023/03/23 04:54:53;;;;;;;;;20.50;17.75;;;;;12.31;77.73;101059.41;146617;616;45021;-82
2023/03/23 04:57:46;;;;;;;;;20.75;17.25;;;;;12.38;78.03;101062.38;146616;602;45914;-82
2023/03/23 05:00:55;;;;;;;;;20.50;18.00;;;;;10.35;76.95;100697.28;146618;584;45020;-80
2023/03/23 05:04:00;;;;;;;;;21.75;18.50;;;;;12.56;78.16;101069.31;146615;611;45016;-78
2023/03/23 05:07:18;;;;;;;;;23.50;16.00;;;;;10.52;76.51;100703.31;146615;586;45020;-80
2023/03/23 05:10:23;;;;;;;;;18.00;15.75;;;;;12.68;77.26;101070.78;146619;610;45019;-78
2023/03/23 05:13:34;;;;;;;;;16.75;16.00;;;;;11.37;76.67;100831.28;146614;580;46020;-80
2023/03/23 05:16:47;;;;;;;;;;;;;;;;;;;;;
2023/03/23 05:19:51;;;;;;;;;26.75;19.00;;;;;12.86;77.02;101080.25;146622;592;45020;-81
2023/03/23 05:23:00;;;;;;;;;20.75;19.25;;;;;12.88;76.67;101081.25;146618;631;45914;-81
2023/03/23 05:26:07;;;;;;;;;21.50;18.50;;;;;12.89;76.24;101086.50;146623;593;45020;-78
2023/03/23 05:29:03;;;;;;;;;24.50;19.75;;;;;12.90;76.97;101085.72;146617;573;45915;-82
2023/03/23 05:32:03;;;;;;;;;38.00;32.00;;;;;12.97;76.66;101099.00;146622;691;45021;-77
2023/03/23 05:35:00;;;;;;;;;32.75;29.00;;;;;13.02;77.06;101095.81;146616;566;45016;-79
2023/03/23 05:38:08;;;;;;;;;22.25;20.25;;;;;13.08;76.48;101093.50;146619;589;45020;-80
2023/03/23 05:41:18;;;;;;;;;27.25;24.50;;;;;13.13;76.42;101091.97;146614;616;45914;-81
2023/03/23 05:44:32;;;;;;;;;29.50;27.50;;;;;11.23;75.66;100751.84;146618;590;45020;-80
2023/03/23 05:47:32;;;;;;;;;29.75;28.75;;;;;13.26;76.01;101095.19;146616;620;45919;-85
2023/03/23 05:50:56;;;;;;;;;27.25;25.25;;;;;13.31;75.84;101102.41;146618;624;45020;-82
2023/03/23 05:53:54;;;;;;;;;32.00;29.50;;;;;13.39;75.85;101107.94;146614;594;45017;-81
2023/03/23 05:56:54;;;;;;;;;38.00;29.50;;;;;13.46;75.92;101104.81;146618;591;45020;-76
2023/03/23 05:59:57;;;;;;;;;34.00;27.00;;;;;13.61;75.19;101107.22;146614;609;45915;-75
2023/03/23 06:02:58;;;;;;;;;25.75;22.50;;;;;13.72;74.86;101110.31;146620;588;45020;-82
2023/03/23 06:05:53;;;;;;;;;31.75;29.00;;;;;13.82;74.71;101110.78;146615;650;45016;-74
2023/03/23 06:08:46;;;;;;;;;30.25;28.75;;;;;13.92;74.27;101109.47;146618;614;45021;-73
2023/03/23 06:11:43;;;;;;;;;33.00;28.75;;;;;14.01;74.22;101112.47;146620;601;45021;-73
2023/03/23 06:14:38;;;;;;;;;33.50;28.50;;;;;14.14;73.41;101116.50;146619;584;46010;-77
2023/03/23 06:17:32;;;;;;;;;29.25;23.75;;;;;14.21;71.95;101115.94;146617;586;45016;-77
2023/03/23 06:20:24;;;;;;;;;31.75;28.25;;;;;14.26;72.08;101117.00;146620;739;45020;-76
2023/03/23 06:23:24;;;;;;;;;25.75;24.75;;;;;14.35;71.94;101124.34;146620;604;45016;-73
2023/03/23 06:26:22;;;;;;;;;34.25;28.50;;;;;14.46;71.26;101117.88;146620;569;45020;-75
2023/03/23 06:29:22;;;;;;;;;31.00;28.50;;;;;14.54;71.17;101118.22;146616;585;45914;-72
2023/03/23 06:32:18;;;;;;;;;33.25;29.25;;;;;14.69;71.21;101120.56;146622;609;45020;-74
2023/03/23 06:35:31;;;;;;;;;38.75;32.25;;;;;14.85;69.89;101120.34;146617;582;45016;-74
2023/03/23 06:39:10;;;;;;;;;41.50;33.00;;;;;14.99;69.18;101121.81;146611;641;45021;-74
2023/03/23 06:42:21;;;;;;;;;43.50;32.00;;;;;15.09;69.16;101130.88;146617;569;45016;-75
2023/03/23 06:45:30;;;;;;;;;37.50;31.50;;;;;14.24;68.25;100951.75;146618;607;45021;-74
2023/03/23 06:48:32;;;;;;;;;39.75;31.00;;;;;15.33;68.05;101130.97;146618;614;45912;-74
2023/03/23 06:51:40;;;;;;;;;;;;;;;;;;;;;
2023/03/23 06:54:48;;;;;;;;;38.00;32.25;;;;;15.58;68.38;101124.06;146620;623;45017;-74
2023/03/23 06:57:51;;;;;;;;;32.50;30.25;;;;;15.83;65.99;101118.03;146614;613;46020;-74
2023/03/23 07:01:07;;;;;;;;;32.00;29.00;;;;;14.14;64.98;100777.47;146615;566;45915;-73
2023/03/23 07:04:08;;;;;;;;;35.25;30.25;;;;;16.34;64.59;101128.53;146618;570;45027;-74
2023/03/23 07:07:13;;;;;;;;;31.00;27.00;;;;;16.59;63.80;101130.25;146615;590;45919;-74
2023/03/23 07:10:26;;;;;;;;;34.75;28.75;;;;;16.69;63.30;101131.44;146617;571;45020;-74
2023/03/23 07:13:42;;;;;;;;;27.75;24.75;;;;;16.69;61.89;101128.81;146616;573;45914;-73
2023/03/23 07:16:40;;;;;;;;;24.00;22.00;;;;;16.61;61.11;101129.47;146620;607;45021;-73
2023/03/23 07:19:43;;;;;;;;;28.25;25.25;;;;;16.65;62.56;101126.94;146616;592;45016;-75
2023/03/23 07:22:49;;;;;;;;;28.25;22.75;;;;;16.94;63.29;101131.41;146617;576;46012;-75
2023/03/23 07:25:59;;;;;;;;;24.50;22.75;;;;;17.32;62.12;101131.75;146614;627;47014;-76
2023/03/23 07:29:00;;;;;;;;;23.50;18.50;;;;;17.70;57.33;101126.75;146609;665;46012;-77
2023/03/23 07:32:11;;;;;;;;;24.00;21.00;;;;;17.99;58.07;101127.56;146616;578;45915;-78
2023/03/23 07:35:11;;;;;;;;;19.75;17.50;;;;;18.31;55.64;101124.91;146620;620;45020;-78
2023/03/23 07:38:17;;;;;;;;;;;;;;;;;;;;;
2023/03/23 07:41:17;;;;;;;;;21.75;18.25;;;;;18.73;54.27;101132.16;146609;634;45917;-77
2023/03/23 07:44:25;;;;;;;;;;;;;;;;;;;;;
2023/03/23 07:47:33;;;;;;;;;17.50;15.25;;;;;18.81;53.48;101127.94;146622;564;45020;-78
2023/03/23 07:50:35;;;;;;;;;14.25;12.00;;;;;18.88;51.45;101124.66;146619;647;45912;-78
2023/03/23 07:53:33;;;;;;;;;13.25;12.25;;;;;18.89;51.18;101134.28;146618;591;46010;-77
2023/03/23 07:56:25;;;;;;;;;12.25;11.50;;;;;18.83;49.66;101134.16;146618;666;45016;-80
2023/03/23 07:59:24;;;;;;;;;15.25;14.75;;;;;18.68;50.45;101134.63;146620;631;45020;-81
2023/03/23 08:02:32;;;;;;;;;12.25;10.75;;;;;16.71;52.58;100813.81;146618;646;45016;-80
2023/03/23 08:05:31;;;;;;;;;15.00;11.75;;;;;18.53;51.28;101134.22;146622;598;45021;-76
2023/03/23 08:08:52;;;;;;;;;14.00;13.00;;;;;18.44;53.40;101133.16;146613;673;46012;-77
2023/03/23 08:11:58;;;;;;;;;16.00;10.50;;;;;16.44;53.21;100815.66;146614;570;45020;-75
2023/03/23 08:15:04;;;;;;;;;10.25;9.50;;;;;18.20;53.02;101150.91;146614;622;45869;-76
2023/03/23 08:18:08;;;;;;;;;14.75;11.75;;;;;18.02;55.67;101143.41;146625;595;46010;-77
2023/03/23 08:21:27;;;;;;;;;16.50;11.25;;;;;15.94;57.89;100800.22;146613;570;45918;-75
2023/03/23 08:24:36;;;;;;;;;15.00;14.25;;;;;17.87;56.12;101138.59;146615;602;45020;-78
2023/03/23 08:27:52;;;;;;;;;17.00;12.50;;;;;17.89;56.66;101146.53;146614;599;45917;-76
2023/03/23 08:30:45;;;;;;;;;15.75;14.00;;;;;16.93;55.32;100985.59;146617;574;45021;-76
2023/03/23 08:34:01;;;;;;;;;12.00;12.00;;;;;16.78;56.60;100990.38;146615;595;45917;-76
2023/03/23 08:37:05;;;;;;;;;13.00;12.25;;;;;17.61;57.00;101144.81;146617;587;46010;-77
2023/03/23 08:40:20;;;;;;;;;19.50;15.50;;;;;17.59;57.73;101149.13;146614;578;45917;-77
2023/03/23 08:43:21;;;;;;;;;15.25;14.00;;;;;17.45;56.82;101148.72;146613;635;46010;-76
2023/03/23 08:46:32;;;;;;;;;16.25;14.00;;;;;17.17;58.12;101147.88;146613;605;46012;-78
2023/03/23 08:49:29;;;;;;;;;18.25;15.50;;;;;16.97;59.68;101159.44;146617;564;45020;-77
2023/03/23 08:52:45;;;;;;;;;15.75;12.00;;;;;16.96;58.80;101157.69;146614;588;45017;-75
2023/03/23 08:55:42;;;;;;;;;19.25;15.25;;;;;16.05;58.87;101009.81;146614;599;46020;-77
2023/03/23 08:58:54;;;;;;;;;18.00;16.75;;;;;16.84;60.25;101158.16;146613;614;45915;-76
2023/03/23 09:01:56;;;;;;;;;12.00;11.00;;;;;16.78;57.33;101153.59;146618;570;45020;-78
2023/03/23 09:04:52;;;;;;;;;20.75;17.25;;;;;16.69;57.13;101155.00;146614;619;45863;-76
2023/03/23 09:07:54;;;;;;;;;19.25;16.75;;;;;16.56;57.94;101156.31;146618;576;45021;-76
2023/03/23 09:10:57;;;;;;;;;15.00;14.25;;;;;16.51;57.87;101163.13;146616;653;45016;-77
2023/03/23 09:14:24;;;;;;;;;17.25;16.25;;;;;16.59;59.51;101156.44;146615;564;45021;-76
2023/03/23 09:17:29;;;;;;;;;16.00;15.25;;;;;14.66;59.83;100797.69;146614;569;46014;-76
2023/03/23 09:20:47;;;;;;;;;19.25;16.50;;;;;14.86;59.31;100802.72;146617;602;46010;-77
2023/03/23 09:23:56;;;;;;;;;18.75;15.50;;;;;15.42;59.46;100837.72;146616;602;45016;-76
2023/03/23 09:27:04;;;;;;;;;15.50;15.00;;;;;16.72;56.75;101024.19;146614;636;47010;-77
2023/03/23 09:30:14;;;;;;;;;14.00;12.25;;;;;17.74;55.27;101139.09;146612;591;45017;-77
2023/03/23 09:33:14;;;;;;;;;17.75;16.25;;;;;17.98;56.60;101131.06;146617;596;45020;-76
2023/03/23 09:36:17;;;;;;;;;17.50;15.50;;;;;18.36;57.00;101134.69;146614;620;45017;-75
2023/03/23 09:39:16;;;;;;;;;16.50;14.25;;;;;18.74;55.62;101139.19;146618;634;46020;-77
2023/03/23 09:42:46;;;;;;;;;19.00;16.75;;;;;17.25;56.49;100821.41;146615;574;45017;-74
2023/03/23 09:46:24;;;;;;;;;19.50;17.50;;;;;19.19;54.03;101139.38;146610;602;47012;-75
2023/03/23 09:50:02;;;;;;;;;18.75;17.50;;;;;17.39;52.40;100820.88;146611;630;46916;-78
2023/03/23 09:53:36;;;;;;;;;18.25;15.75;;;;;19.17;54.03;101132.31;146611;569;46912;-75
2023/03/23 09:56:51;;;;;;;;;19.50;17.50;;;;;19.20;51.33;101132.37;146612;626;45917;-77
2023/03/23 10:00:28;;;;;;;;;9.25;7.25;;;;;18.18;53.48;100937.38;146619;627;45020;-77
2023/03/23 10:03:34;;;;;;;;;15.25;14.25;;;;;19.41;50.08;101135.47;146619;595;45915;-77
2023/03/23 10:06:48;;;;;;;;;15.00;13.50;;;;;19.33;49.88;101130.03;146619;713;45021;-77
2023/03/23 10:09:52;;;;;;;;;13.00;10.75;;;;;19.03;50.31;101132.84;146619;658;45016;-75
2023/03/23 10:13:26;;;;;;;;;14.50;14.50;;;;;16.55;54.81;100761.91;146622;589;45021;-75
2023/03/23 10:16:43;;;;;;;;;18.50;16.75;;;;;16.42;54.45;100796.41;146616;569;46012;-76
2023/03/23 10:20:34;;;;;;;;;13.50;11.25;;;;;15.92;50.93;100781.91;146615;627;47011;-80
2023/03/23 10:24:22;;;;;;;;;16.25;15.00;;;;;15.50;54.15;100814.50;146619;629;45021;-77
2023/03/23 10:27:54;;;;;;;;;17.25;15.00;;;;;17.22;54.85;101130.53;146618;571;45030;-78
2023/03/23 10:31:40;;;;;;;;;18.00;14.00;;;;;15.08;53.58;100793.91;146618;589;45016;-76
2023/03/23 10:35:18;;;;;;;;;14.25;12.00;;;;;16.72;54.74;101134.16;146622;730;45021;-78
2023/03/23 10:38:51;;;;;;;;;17.25;14.25;;;;;16.50;54.99;101122.97;146619;576;45016;-76
2023/03/23 10:41:48;;;;;;;;;13.50;12.75;;;;;16.50;55.26;101122.97;146622;576;45021;-79
2023/03/23 10:45:00;;;;;;;;;12.25;11.25;;;;;13.92;51.82;100674.13;146617;625;45916;-78
2023/03/23 10:48:39;;;;;;;;;11.25;10.25;;;;;14.36;52.60;100742.69;146621;594;47011;-78
2023/03/23 10:51:56;;;;;;;;;12.00;12.00;;;;;16.62;50.49;101132.97;146619;577;45016;-79
2023/03/23 10:55:17;;;;;;;;;12.00;11.25;;;;;14.77;49.75;100826.81;146618;581;45020;-77
2023/03/23 10:58:51;;;;;;;;;15.00;13.00;;;;;14.43;51.97;100780.31;146619;564;45017;-82
2023/03/23 11:01:47;;;;;;;;;12.00;11.25;;;;;16.33;51.80;101126.75;146622;613;45020;-81
2023/03/23 11:04:49;;;;;;;;;12.75;10.50;;;;;16.42;53.69;101124.47;146620;569;45914;-78
2023/03/23 11:08:06;;;;;;;;;14.50;10.75;;;;;15.72;51.31;100986.03;146623;569;45020;-79
2023/03/23 11:11:46;;;;;;;;;14.50;13.00;;;;;14.67;55.45;100764.66;146617;613;45021;-77
2023/03/23 11:14:44;;;;;;;;;14.25;13.00;;;;;16.84;54.08;101111.91;146623;629;45020;-78
2023/03/23 11:17:53;;;;;;;;;13.25;11.75;;;;;16.90;54.11;101099.84;146621;669;45016;-81
2023/03/23 11:20:51;;;;;;;;;14.25;12.50;;;;;17.19;54.59;101099.00;146623;662;45020;-80
2023/03/23 11:24:13;;;;;;;;;15.25;14.00;;;;;16.79;55.91;100935.44;146617;598;46012;-76
2023/03/23 11:27:28;;;;;;;;;12.75;11.00;;;;;18.08;54.43;101105.94;146615;631;46013;-78
2023/03/23 11:30:43;;;;;;;;;16.75;15.25;;;;;18.20;55.58;101099.28;146619;565;45021;-76
2023/03/23 11:34:10;;;;;;;;;18.00;15.25;;;;;18.46;55.42;101096.44;146624;590;45020;-76
2023/03/23 11:37:12;;;;;;;;;19.25;16.00;;;;;18.82;53.86;101093.84;146619;569;45018;-77
2023/03/23 11:40:48;;;;;;;;;;;;;;;;;;;;;
2023/03/23 11:43:59;;;;;;;;;15.00;13.75;;;;;17.36;54.19;100768.38;146618;588;45918;-73
2023/03/23 11:47:52;;;;;;;;;12.00;11.25;;;;;17.70;54.02;100791.06;146623;741;45020;-80
2023/03/23 11:51:37;;;;;;;;;14.00;11.25;;;;;19.57;54.57;101089.34;146619;633;45020;-78
2023/03/23 11:55:15;;;;;;;;;11.00;9.75;;;;;19.66;54.14;101092.19;146622;663;45021;-81
2023/03/23 11:58:35;;;;;;;;;17.25;15.00;;;;;17.97;54.83;100783.84;146622;607;45020;-80
2023/03/23 12:02:28;;;;;;;;;17.75;15.25;;;;;17.97;54.53;100780.31;146617;665;45022;-78
2023/03/23 12:05:53;;;;;;;;;14.25;13.00;;;;;19.72;54.92;101087.06;146619;615;45016;-77
2023/03/23 12:09:47;;;;;;;;;19.25;15.75;;;;;19.64;55.01;101086.00;146620;583;45020;-78
2023/03/23 12:13:27;;;;;;;;;14.50;14.50;;;;;17.69;56.09;100773.53;146616;574;45036;-73
2023/03/23 12:16:50;;;;;;;;;14.75;13.25;;;;;19.49;55.63;101085.66;146619;709;45020;-85
2023/03/23 12:20:43;;;;;;;;;14.00;14.00;;;;;18.48;56.06;100917.94;146615;595;45017;-78
2023/03/23 12:24:11;;;;;;;;;15.00;13.50;;;;;19.37;53.90;101079.28;146619;612;45020;-80
2023/03/23 12:27:52;;;;;;;;;16.50;15.50;;;;;19.35;55.10;101085.41;146612;608;46915;-75
2023/03/23 12:31:30;;;;;;;;;14.00;12.25;;;;;17.48;55.77;100766.94;146617;630;46010;-79
2023/03/23 12:35:05;;;;;;;;;12.50;9.75;;;;;16.73;54.86;100647.19;146616;606;45019;-77
2023/03/23 12:38:36;;;;;;;;;12.00;12.00;;;;;19.22;53.78;101079.00;146616;577;46010;-77
2023/03/23 12:42:21;;;;;;;;;;;;;;;;;;;;;
2023/03/23 12:45:53;;;;;;;;;13.25;11.00;;;;;19.21;54.54;101082.44;146617;613;46010;-78
2023/03/23 12:49:09;;;;;;;;;12.75;11.75;;;;;18.28;55.07;100931.47;146615;606;45017;-79
2023/03/23 12:52:45;;;;;;;;;14.75;11.50;;;;;19.14;55.65;101083.19;146615;673;46010;-78
2023/03/23 12:56:27;;;;;;;;;15.75;12.75;;;;;19.08;56.12;101081.28;146616;575;45021;-77
2023/03/23 13:00:00;;;;;;;;;11.25;11.25;;;;;16.92;55.45;100718.41;146618;646;45020;-79
2023/03/23 13:03:30;;;;;;;;;15.75;12.00;;;;;17.77;55.86;100876.91;146615;606;45913;-78
2023/03/23 13:06:45;;;;;;;;;12.75;12.00;;;;;18.00;55.47;100909.81;146618;650;45020;-78
2023/03/23 13:10:09;;;;;;;;;14.50;13.50;;;;;18.83;56.08;101071.97;146614;566;45018;-78
2023/03/23 13:13:22;;;;;;;;;16.25;14.25;;;;;18.76;55.66;101064.81;146616;667;45020;-80
2023/03/23 13:16:59;;;;;;;;;12.50;10.75;;;;;16.92;56.45;100758.56;146614;645;45914;-78
2023/03/23 13:20:39;;;;;;;;;;;;;;;;;;;;;
2023/03/23 13:24:01;;;;;;;;;12.50;10.25;;;;;18.60;56.86;101060.91;146613;564;46012;-77
2023/03/23 13:27:21;;;;;;;;;13.75;12.00;;;;;18.59;56.85;101063.47;146618;607;45021;-78
2023/03/23 13:30:39;;;;;;;;;15.75;14.50;;;;;18.59;57.28;101056.47;146615;590;45914;-79
2023/03/23 13:34:11;;;;;;;;;14.50;13.75;;;;;16.66;57.15;100731.63;146617;574;45028;-78
2023/03/23 13:37:45;;;;;;;;;;;;;;;;;;;;;
2023/03/23 13:40:51;;;;;;;;;8.25;7.25;;;;;18.45;56.90;101068.41;146617;565;45021;-76
2023/03/23 13:43:51;;;;;;;;;13.75;13.75;;;;;18.43;57.33;101065.72;146612;574;46012;-77
2023/03/23 13:46:48;;;;;;;;;15.50;13.00;;;;;18.34;58.86;101059.38;146607;597;47011;-77
2023/03/23 13:50:16;;;;;;;;;16.50;12.75;;;;;18.22;58.58;101059.94;146613;569;45914;-78
2023/03/23 13:53:49;;;;;;;;;14.50;14.50;;;;;16.24;59.01;100744.44;146616;570;46012;-79
2023/03/23 13:57:10;;;;;;;;;19.00;15.50;;;;;16.46;58.41;100780.84;146614;640;45912;-79
2023/03/23 14:00:27;;;;;;;;;13.75;12.75;;;;;18.03;59.53;101065.56;146615;668;46012;-79
2023/03/23 14:04:04;;;;;;;;;15.50;14.25;;;;;17.97;59.01;101056.72;146612;703;46012;-79
2023/03/23 14:06:59;;;;;;;;;17.75;15.00;;;;;17.91;59.22;101056.53;146615;564;46010;-81
2023/03/23 14:10:32;;;;;;;;;15.75;14.00;;;;;17.87;59.42;101064.28;146615;606;45914;-81
2023/03/23 14:14:07;;;;;;;;;16.25;15.25;;;;;17.77;59.44;101074.50;146617;590;45020;-78
2023/03/23 14:17:32;;;;;;;;;15.25;13.75;;;;;17.73;59.83;101070.00;146614;677;45912;-82
2023/03/23 14:20:42;;;;;;;;;15.75;12.00;;;;;15.77;59.35;100731.75;146613;609;45049;-80
2023/03/23 14:23:42;;;;;;;;;12.50;10.75;;;;;17.69;60.77;101072.47;146614;577;46015;-79
2023/03/23 14:26:57;;;;;;;;;13.25;11.00;;;;;17.66;60.55;101062.81;146614;695;46010;-78
2023/03/23 14:30:15;;;;;;;;;16.50;13.25;;;;;17.63;60.84;101075.84;146616;637;45016;-78
2023/03/23 14:33:23;;;;;;;;;13.50;11.25;;;;;17.58;60.86;101079.19;146616;624;46012;-78
2023/03/23 14:36:48;;;;;;;;;22.00;14.75;;;;;15.73;60.60;100752.50;146614;619;45016;-79
2023/03/23 14:39:56;;;;;;;;;18.25;14.75;;;;;16.60;60.64;100906.88;146616;714;46021;-82
2023/03/23 14:42:57;;;;;;;;;14.75;14.75;;;;;17.57;61.37;101080.00;146615;576;45913;-79
2023/03/23 14:46:10;;;;;;;;;14.75;12.00;;;;;15.79;61.10;100760.53;146617;723;46010;-78
2023/03/23 14:49:09;;;;;;;;;13.50;13.50;;;;;17.57;61.71;101083.53;146615;580;46014;-79
2023/03/23 14:52:26;;;;;;;;;14.75;13.50;;;;;17.52;61.52;101083.41;146613;587;45020;-77
2023/03/23 14:55:30;;;;;;;;;16.50;14.25;;;;;17.45;62.08;101065.72;146614;643;46014;-78
2023/03/23 14:58:47;;;;;;;;;16.75;15.50;;;;;17.58;61.17;101069.56;146617;647;45029;-77